createdAt,value
2023-05-28T00:00:47.586Z,100574.91
2023-05-28T00:03:18.076Z,100578.31
2023-05-28T00:05:45.794Z,100577.47
2023-05-28T00:08:12.424Z,100577.50
2023-05-28T00:10:38.882Z,100587.41
2023-05-28T00:13:07.625Z,100591.81
2023-05-28T00:15:41.273Z,100591.78
2023-05-28T00:18:12.819Z,100592.03
2023-05-28T00:20:39.684Z,100593.84
2023-05-28T00:23:06.987Z,100601.19
2023-05-28T00:25:35.997Z,100589.03
2023-05-28T00:28:02.519Z,100598.63
2023-05-28T00:30:31.068Z,100603.09
2023-05-28T00:32:57.623Z,100604.84
2023-05-28T00:35:24.228Z,100596.47
2023-05-28T00:37:50.715Z,100604.50
2023-05-28T00:40:19.077Z,100608.19
2023-05-28T00:42:47.008Z,100592.81
2023-05-28T00:45:15.801Z,100598.09
2023-05-28T00:47:42.385Z,100602.34
2023-05-28T00:50:10.187Z,100596.09
2023-05-28T00:52:37.434Z,100603.28
2023-05-28T00:55:14.525Z,100609.06
2023-05-28T00:57:44.297Z,100609.84
2023-05-28T01:00:13.020Z,100606.72
2023-05-28T01:02:39.586Z,100600.56
2023-05-28T01:05:06.362Z,100607.75
2023-05-28T01:07:33.804Z,100607.69
2023-05-28T01:10:00.525Z,100610.31
2023-05-28T01:12:32.593Z,100603.97
2023-05-28T01:14:59.208Z,100614.75
2023-05-28T01:17:26.355Z,100608.59
2023-05-28T01:19:53.022Z,100615.34
2023-05-28T01:22:26.749Z,100611.75
2023-05-28T01:24:53.499Z,100620.56
2023-05-28T01:27:20.676Z,100625.00
2023-05-28T01:29:47.132Z,100614.91
2023-05-28T01:32:13.904Z,100623.09
2023-05-28T01:34:40.536Z,100621.03
2023-05-28T01:37:11.998Z,100612.28
2023-05-28T01:39:44.418Z,100616.38
2023-05-28T01:42:12.680Z,100620.22
2023-05-28T01:44:40.144Z,100630.28
2023-05-28T01:47:07.009Z,100637.00
2023-05-28T01:49:33.500Z,100633.97
2023-05-28T01:52:00.011Z,100626.44
2023-05-28T01:54:26.781Z,100629.56
2023-05-28T01:56:53.393Z,100639.63
2023-05-28T01:59:19.952Z,100643.22
2023-05-28T02:01:49.009Z,100634.47
2023-05-28T02:04:15.933Z,100634.56
2023-05-28T02:06:46.729Z,100638.91
2023-05-28T02:09:13.248Z,100632.78
2023-05-28T02:11:39.639Z,100636.00
2023-05-28T02:14:06.135Z,100644.16
2023-05-28T02:16:32.826Z,100640.91
2023-05-28T02:19:00.231Z,100625.31
2023-05-28T02:21:26.681Z,100630.00
2023-05-28T02:23:53.230Z,100634.53
2023-05-28T02:26:20.071Z,100629.63
2023-05-28T02:28:48.789Z,100641.97
2023-05-28T02:31:15.546Z,100639.44
2023-05-28T02:33:43.085Z,100635.47
2023-05-28T02:36:15.317Z,100635.22
2023-05-28T02:38:42.407Z,100631.38
2023-05-28T02:41:09.860Z,100628.28
2023-05-28T02:43:36.975Z,100630.78
2023-05-28T02:46:03.492Z,100636.63
2023-05-28T02:48:32.571Z,100637.34
2023-05-28T02:50:58.989Z,100640.59
2023-05-28T02:53:31.406Z,100642.25
2023-05-28T02:55:58.296Z,100641.25
2023-05-28T02:58:29.589Z,100645.91
2023-05-28T03:00:56.284Z,100632.84
2023-05-28T03:03:25.957Z,100638.94
2023-05-28T03:05:52.822Z,100636.66
2023-05-28T03:08:19.590Z,100643.22
2023-05-28T03:10:48.377Z,100632.66
2023-05-28T03:13:14.917Z,100643.66
2023-05-28T03:15:41.468Z,100648.56
2023-05-28T03:18:07.980Z,100638.03
2023-05-28T03:20:34.874Z,100651.72
2023-05-28T03:23:01.482Z,100642.88
2023-05-28T03:25:28.068Z,100644.53
2023-05-28T03:27:57.469Z,100648.09
2023-05-28T03:30:24.136Z,100639.25
2023-05-28T03:32:51.237Z,100639.38
2023-05-28T03:35:18.283Z,100643.75
2023-05-28T03:37:44.979Z,100645.25
2023-05-28T03:40:12.090Z,100658.84
2023-05-28T03:42:39.356Z,100648.41
2023-05-28T03:45:06.740Z,100651.13
2023-05-28T03:47:34.393Z,100641.91
2023-05-28T03:50:01.011Z,100642.72
2023-05-28T03:52:28.595Z,100633.66
2023-05-28T03:54:55.128Z,100638.41
2023-05-28T03:57:21.627Z,100642.13
2023-05-28T03:59:48.151Z,100633.88
2023-05-28T04:02:14.812Z,100640.09
2023-05-28T04:04:41.433Z,100635.78
2023-05-28T04:07:10.490Z,100642.50
2023-05-28T04:09:36.873Z,100635.56
2023-05-28T04:12:03.581Z,100635.34
2023-05-28T04:14:32.439Z,100649.25
2023-05-28T04:16:58.983Z,100638.19
2023-05-28T04:19:25.788Z,100637.00
2023-05-28T04:21:52.396Z,100630.44
2023-05-28T04:24:19.483Z,100630.25
2023-05-28T04:26:46.229Z,100638.63
2023-05-28T04:29:14.174Z,100643.44
2023-05-28T04:31:44.898Z,100641.09
2023-05-28T04:34:13.064Z,100645.91
2023-05-28T04:36:39.546Z,100650.72
2023-05-28T04:39:05.962Z,100651.09
2023-05-28T04:41:32.508Z,100656.03
2023-05-28T04:43:59.448Z,100656.53
2023-05-28T04:46:26.670Z,100653.91
2023-05-28T04:48:53.513Z,100644.47
2023-05-28T04:51:22.059Z,100652.63
2023-05-28T04:53:49.145Z,100662.38
2023-05-28T04:56:17.953Z,100650.91
2023-05-28T04:58:44.469Z,100657.25
2023-05-28T05:01:10.936Z,100656.16
2023-05-28T05:03:37.492Z,100655.94
2023-05-28T05:06:04.405Z,100658.63
2023-05-28T05:08:31.046Z,100649.72
2023-05-28T05:10:57.566Z,100651.38
2023-05-28T05:13:24.636Z,100663.00
2023-05-28T05:15:51.486Z,100653.94
2023-05-28T05:18:18.546Z,100642.56
2023-05-28T05:20:47.764Z,100648.53
2023-05-28T05:23:14.235Z,100650.34
2023-05-28T05:25:41.028Z,100648.09
2023-05-28T05:28:07.507Z,100646.38
2023-05-28T05:30:34.083Z,100653.72
2023-05-28T05:33:02.950Z,100661.56
2023-05-28T05:35:29.505Z,100645.59
2023-05-28T05:37:55.947Z,100659.59
2023-05-28T05:40:25.129Z,100661.47
2023-05-28T05:42:51.570Z,100654.81
2023-05-28T05:45:18.024Z,100645.22
2023-05-28T05:47:44.588Z,100645.41
2023-05-28T05:50:12.646Z,100637.59
2023-05-28T05:52:39.876Z,100641.25
2023-05-28T05:55:06.998Z,100640.81
2023-05-28T05:57:37.488Z,100648.66
2023-05-28T06:00:06.555Z,100635.34
2023-05-28T06:02:33.015Z,100643.41
2023-05-28T06:04:59.567Z,100629.97
2023-05-28T06:07:26.182Z,100629.53
2023-05-28T06:09:52.716Z,100615.09
2023-05-28T06:12:19.170Z,100613.38
2023-05-28T06:14:46.198Z,100614.38
2023-05-28T06:17:12.764Z,100606.47
2023-05-28T06:19:39.948Z,100595.97
2023-05-28T06:22:06.389Z,100585.94
2023-05-28T06:24:32.874Z,100588.13
2023-05-28T06:26:59.524Z,100590.78
2023-05-28T06:29:26.030Z,100586.16
2023-05-28T06:31:52.775Z,100589.88
2023-05-28T06:34:19.298Z,100594.13
2023-05-28T06:36:45.913Z,100583.09
2023-05-28T06:39:16.971Z,100604.75
2023-05-28T06:41:43.404Z,100591.81
2023-05-28T06:44:12.271Z,100603.47
2023-05-28T06:46:38.842Z,100597.13
2023-05-28T06:49:05.328Z,100592.00
2023-05-28T06:51:32.225Z,100596.81
2023-05-28T06:53:58.729Z,100588.00
2023-05-28T06:56:25.559Z,100601.19
2023-05-28T06:58:55.759Z,100606.06
2023-05-28T07:01:22.262Z,100607.94
2023-05-28T07:03:49.013Z,100606.66
2023-05-28T07:06:15.964Z,100583.94
2023-05-28T07:08:45.438Z,100588.66
2023-05-28T07:11:13.162Z,100594.03
2023-05-28T07:13:41.074Z,100588.69
2023-05-28T07:16:11.106Z,100584.19
2023-05-28T07:18:40.117Z,100602.84
2023-05-28T07:21:06.851Z,100598.94
2023-05-28T07:23:33.362Z,100598.59
2023-05-28T07:26:01.620Z,100609.22
2023-05-28T07:28:32.143Z,100584.13
2023-05-28T07:30:58.600Z,100573.69
2023-05-28T07:33:25.716Z,100590.47
2023-05-28T07:35:52.360Z,100588.47
2023-05-28T07:38:21.278Z,100582.31
2023-05-28T07:40:47.842Z,100593.25
2023-05-28T07:43:14.336Z,100578.47
2023-05-28T07:45:40.934Z,100579.69
2023-05-28T07:48:07.538Z,100576.19
2023-05-28T07:50:36.221Z,100561.97
2023-05-28T07:53:02.707Z,100569.41
2023-05-28T07:55:31.809Z,100563.09
2023-05-28T07:57:59.664Z,100563.69
2023-05-28T08:00:27.457Z,100543.94
2023-05-28T08:02:54.438Z,100563.88
2023-05-28T08:05:24.147Z,100551.13
2023-05-28T08:07:50.893Z,100540.63
2023-05-28T08:10:17.458Z,100546.41
2023-05-28T08:12:43.921Z,100549.78
2023-05-28T08:15:11.033Z,100561.41
2023-05-28T08:17:39.971Z,100542.28
2023-05-28T08:20:08.265Z,100533.81
2023-05-28T08:22:34.866Z,100537.84
2023-05-28T08:25:03.996Z,100550.09
2023-05-28T08:27:32.085Z,100536.84
2023-05-28T08:30:00.894Z,100526.78
2023-05-28T08:32:29.844Z,100520.44
2023-05-28T08:35:00.907Z,100530.94
2023-05-28T08:37:27.399Z,100524.47
2023-05-28T08:39:53.886Z,100531.78
2023-05-28T08:42:23.050Z,100520.50
2023-05-28T08:44:49.654Z,100521.53
2023-05-28T08:47:17.095Z,100525.81
2023-05-28T08:49:51.936Z,100508.94
2023-05-28T08:52:20.775Z,100518.72
2023-05-28T08:54:47.996Z,100508.66
2023-05-28T08:57:15.437Z,100509.56
2023-05-28T08:59:41.929Z,100495.09
2023-05-28T09:02:10.122Z,100500.28
2023-05-28T09:04:36.702Z,100506.00
2023-05-28T09:07:06.808Z,100487.66
2023-05-28T09:09:34.473Z,100502.09
2023-05-28T09:12:06.476Z,100489.66
2023-05-28T09:14:41.925Z,100479.22
2023-05-28T09:17:10.173Z,100480.97
2023-05-28T09:19:37.281Z,100473.09
2023-05-28T09:22:04.797Z,100485.09
2023-05-28T09:24:31.777Z,100489.72
2023-05-28T09:26:59.216Z,100482.69
2023-05-28T09:29:29.690Z,100469.59
2023-05-28T09:32:03.128Z,100484.38
2023-05-28T09:34:32.967Z,100465.91
2023-05-28T09:37:06.175Z,100482.09
2023-05-28T09:39:36.689Z,100461.59
2023-05-28T09:42:13.036Z,100457.06
2023-05-28T09:44:41.519Z,100447.38
2023-05-28T09:47:15.886Z,100469.06
2023-05-28T09:49:47.379Z,100458.72
2023-05-28T09:52:22.090Z,100451.66
2023-05-28T09:54:56.677Z,100445.44
2023-05-28T09:57:30.524Z,100441.75
2023-05-28T09:59:57.424Z,100458.75
2023-05-28T10:02:26.590Z,100441.75
2023-05-28T10:05:00.907Z,100448.31
2023-05-28T10:07:29.696Z,100453.66
2023-05-28T10:10:01.067Z,100442.47
2023-05-28T10:12:30.101Z,100435.97
2023-05-28T10:14:57.338Z,100429.72
2023-05-28T10:17:24.615Z,100450.44
2023-05-28T10:19:51.578Z,100446.88
2023-05-28T10:22:18.439Z,100438.34
2023-05-28T10:24:46.331Z,100447.91
2023-05-28T10:27:16.792Z,100441.38
2023-05-28T10:29:44.680Z,100434.31
2023-05-28T10:32:15.158Z,100449.75
2023-05-28T10:34:42.269Z,100441.13
2023-05-28T10:37:10.078Z,100436.03
2023-05-28T10:39:44.347Z,100433.56
2023-05-28T10:42:15.240Z,100436.41
2023-05-28T10:44:51.957Z,100446.84
2023-05-28T10:47:20.145Z,100428.41
2023-05-28T10:50:15.898Z,100414.72
2023-05-28T10:53:03.278Z,100422.56
2023-05-28T10:55:30.065Z,100417.63
2023-05-28T10:58:08.641Z,100419.88
2023-05-28T11:00:42.057Z,100428.25
2023-05-28T11:03:08.766Z,100430.50
2023-05-28T11:05:39.593Z,100436.88
2023-05-28T11:08:06.714Z,100416.16
2023-05-28T11:10:34.458Z,100408.00
2023-05-28T11:13:01.282Z,100401.81
2023-05-28T11:15:27.727Z,100405.84
2023-05-28T11:17:54.267Z,100412.31
2023-05-28T11:20:26.358Z,100406.31
2023-05-28T11:22:54.713Z,100393.72
2023-05-28T11:25:23.147Z,100410.47
2023-05-28T11:27:51.517Z,100404.66
2023-05-28T11:30:23.589Z,100409.47
2023-05-28T11:32:54.998Z,100404.19
2023-05-28T11:35:21.790Z,100394.13
2023-05-28T11:37:48.310Z,100395.13
2023-05-28T11:40:16.003Z,100393.97
2023-05-28T11:42:43.888Z,100396.38
2023-05-28T11:45:12.721Z,100386.19
2023-05-28T11:47:39.840Z,100400.97
2023-05-28T11:50:13.739Z,100384.81
2023-05-28T11:52:40.724Z,100388.78
2023-05-28T11:55:08.010Z,100381.69
2023-05-28T11:57:34.772Z,100373.13
2023-05-28T12:00:19.799Z,100387.06
2023-05-28T12:02:48.434Z,100380.00
2023-05-28T12:05:16.984Z,100377.84
2023-05-28T12:07:52.123Z,100369.16
2023-05-28T12:10:22.597Z,100368.03
2023-05-28T12:12:56.421Z,100370.19
2023-05-28T12:15:29.764Z,100373.41
2023-05-28T12:18:02.200Z,100358.25
2023-05-28T12:20:42.086Z,100359.09
2023-05-28T12:23:09.975Z,100360.66
2023-05-28T12:25:52.522Z,100365.41
2023-05-28T12:28:23.824Z,100355.63
2023-05-28T12:30:55.977Z,100349.97
2023-05-28T12:33:23.441Z,100364.56
2023-05-28T12:35:50.837Z,100348.34
2023-05-28T12:38:20.259Z,100356.59
2023-05-28T12:40:48.924Z,100352.97
2023-05-28T12:43:16.275Z,100366.94
2023-05-28T12:45:42.840Z,100342.34
2023-05-28T12:48:12.009Z,100332.84
2023-05-28T12:50:38.512Z,100335.34
2023-05-28T12:53:05.815Z,100347.59
2023-05-28T12:55:35.257Z,100333.78
2023-05-28T12:58:02.185Z,100355.41
2023-05-28T13:00:34.429Z,100327.19
2023-05-28T13:03:03.786Z,100327.63
2023-05-28T13:05:34.389Z,100319.50
2023-05-28T13:08:03.955Z,100322.38
2023-05-28T13:10:33.106Z,100325.31
2023-05-28T13:12:59.527Z,100324.63
2023-05-28T13:15:26.127Z,100313.56
2023-05-28T13:17:52.718Z,100315.91
2023-05-28T13:20:21.920Z,100311.56
2023-05-28T13:22:48.349Z,100325.78
2023-05-28T13:25:19.638Z,100316.38
2023-05-28T13:27:45.984Z,100319.81
2023-05-28T13:30:15.175Z,100326.25
2023-05-28T13:32:46.292Z,100318.28
2023-05-28T13:35:12.853Z,100312.16
2023-05-28T13:37:39.789Z,100309.91
2023-05-28T13:40:11.906Z,100311.09
2023-05-28T13:42:38.917Z,100317.50
2023-05-28T13:45:08.194Z,100328.91
2023-05-28T13:47:34.646Z,100321.13
2023-05-28T13:50:06.052Z,100307.47
2023-05-28T13:52:32.863Z,100306.00
2023-05-28T13:54:59.450Z,100306.53
2023-05-28T13:57:30.721Z,100301.00
2023-05-28T13:59:57.527Z,100306.41
2023-05-28T14:02:26.595Z,100287.53
2023-05-28T14:04:55.683Z,100289.66
2023-05-28T14:07:24.594Z,100286.03
2023-05-28T14:09:51.639Z,100290.41
2023-05-28T14:12:22.430Z,100277.69
2023-05-28T14:14:52.039Z,100277.91
2023-05-28T14:17:18.543Z,100276.19
2023-05-28T14:19:48.588Z,100276.00
2023-05-28T14:22:15.429Z,100272.28
2023-05-28T14:24:44.469Z,100273.72
2023-05-28T14:27:11.008Z,100269.84
2023-05-28T14:29:37.496Z,100276.78
2023-05-28T14:32:06.880Z,100258.09
2023-05-28T14:34:33.741Z,100268.91
2023-05-28T14:37:01.212Z,100256.19
2023-05-28T14:39:28.737Z,100262.91
2023-05-28T14:41:55.332Z,100253.97
2023-05-28T14:44:21.846Z,100266.44
2023-05-28T14:46:48.509Z,100260.56
2023-05-28T14:49:22.478Z,100249.06
2023-05-28T14:51:53.602Z,100260.56
2023-05-28T14:54:20.011Z,100247.34
2023-05-28T14:56:46.439Z,100260.59
2023-05-28T14:59:13.044Z,100264.34
2023-05-28T15:01:39.573Z,100249.09
2023-05-28T15:04:06.941Z,100247.59
2023-05-28T15:06:36.386Z,100254.22
2023-05-28T15:09:02.851Z,100241.22
2023-05-28T15:11:29.232Z,100253.75
2023-05-28T15:14:00.640Z,100233.75
2023-05-28T15:16:27.043Z,100239.91
2023-05-28T15:18:53.674Z,100229.09
2023-05-28T15:21:20.160Z,100228.69
2023-05-28T15:23:46.696Z,100237.66
2023-05-28T15:26:13.303Z,100236.47
2023-05-28T15:28:40.014Z,100233.28
2023-05-28T15:31:06.766Z,100232.03
2023-05-28T15:33:34.396Z,100237.41
2023-05-28T15:36:03.452Z,100232.47
2023-05-28T15:38:30.174Z,100241.66
2023-05-28T15:40:57.664Z,100236.31
2023-05-28T15:43:26.482Z,100233.44
2023-05-28T15:45:53.449Z,100225.00
2023-05-28T15:48:24.867Z,100233.97
2023-05-28T15:50:51.436Z,100231.91
2023-05-28T15:53:21.937Z,100217.38
2023-05-28T15:55:51.201Z,100224.41
2023-05-28T15:58:22.605Z,100218.84
2023-05-28T16:00:51.580Z,100220.09
2023-05-28T16:03:19.961Z,100214.31
2023-05-28T16:05:47.232Z,100216.19
2023-05-28T16:08:18.530Z,100223.91
2023-05-28T16:10:45.275Z,100214.13
2023-05-28T16:13:17.391Z,100209.56
2023-05-28T16:15:46.726Z,100213.56
2023-05-28T16:18:14.651Z,100213.34
2023-05-28T16:20:41.528Z,100219.56
2023-05-28T16:23:08.272Z,100212.53
2023-05-28T16:25:36.100Z,100201.75
2023-05-28T16:28:02.839Z,100214.19
2023-05-28T16:30:30.682Z,100206.75
2023-05-28T16:32:58.894Z,100203.84
2023-05-28T16:35:28.089Z,100194.34
2023-05-28T16:37:54.751Z,100202.28
2023-05-28T16:40:21.442Z,100199.78
2023-05-28T16:42:51.229Z,100196.44
2023-05-28T16:45:17.993Z,100194.19
2023-05-28T16:47:48.938Z,100189.84
2023-05-28T16:50:17.032Z,100213.53
2023-05-28T16:52:43.562Z,100202.34
2023-05-28T16:55:10.671Z,100203.59
2023-05-28T16:57:37.213Z,100188.63
2023-05-28T17:00:08.008Z,100199.03
2023-05-28T17:02:34.958Z,100206.88
2023-05-28T17:05:01.948Z,100205.84
2023-05-28T17:07:28.438Z,100205.22
2023-05-28T17:10:02.102Z,100201.44
2023-05-28T17:12:28.535Z,100198.97
2023-05-28T17:14:54.989Z,100195.25
2023-05-28T17:17:23.884Z,100208.06
2023-05-28T17:19:50.350Z,100204.34
2023-05-28T17:22:17.060Z,100215.13
2023-05-28T17:24:45.981Z,100217.00
2023-05-28T17:27:15.333Z,100223.44
2023-05-28T17:29:43.887Z,100218.09
2023-05-28T17:32:13.412Z,100225.56
2023-05-28T17:34:44.822Z,100229.69
2023-05-28T17:37:11.643Z,100235.94
2023-05-28T17:39:38.041Z,100239.28
2023-05-28T17:42:04.802Z,100238.81
2023-05-28T17:44:33.176Z,100242.97
2023-05-28T17:46:59.926Z,100241.75
2023-05-28T17:49:26.465Z,100242.41
2023-05-28T17:51:53.806Z,100236.38
2023-05-28T17:54:21.624Z,100232.69
2023-05-28T17:56:48.340Z,100232.06
2023-05-28T17:59:15.091Z,100236.41
2023-05-28T18:01:43.144Z,100236.84
2023-05-28T18:04:10.041Z,100245.56
2023-05-28T18:06:37.896Z,100247.38
2023-05-28T18:09:10.657Z,100248.22
2023-05-28T18:11:40.211Z,100251.56
2023-05-28T18:14:06.650Z,100246.00
2023-05-28T18:16:33.288Z,100254.47
2023-05-28T18:19:03.152Z,100252.16
2023-05-28T18:21:30.095Z,100256.09
2023-05-28T18:24:09.919Z,100257.13
2023-05-28T18:26:37.415Z,100257.72
2023-05-28T18:29:06.720Z,100260.84
2023-05-28T18:31:36.135Z,100257.31
2023-05-28T18:34:04.040Z,100256.88
2023-05-28T18:36:34.932Z,100264.94
2023-05-28T18:39:01.442Z,100261.66
2023-05-28T18:41:27.972Z,100264.53
2023-05-28T18:43:55.112Z,100269.47
2023-05-28T18:46:21.814Z,100273.13
2023-05-28T18:48:50.926Z,100270.78
2023-05-28T18:51:17.380Z,100280.00
2023-05-28T18:53:46.817Z,100280.59
2023-05-28T18:56:13.316Z,100287.88
2023-05-28T18:58:42.432Z,100298.88
2023-05-28T19:01:08.993Z,100295.78
2023-05-28T19:03:36.837Z,100305.72
2023-05-28T19:06:07.673Z,100302.31
2023-05-28T19:08:36.362Z,100309.28
2023-05-28T19:11:03.504Z,100307.44
2023-05-28T19:13:29.955Z,100315.47
2023-05-28T19:15:56.668Z,100317.81
2023-05-28T19:18:23.516Z,100311.06
2023-05-28T19:20:51.042Z,100319.50
2023-05-28T19:23:19.891Z,100318.50
2023-05-28T19:25:46.400Z,100330.28
2023-05-28T19:28:12.782Z,100329.34
2023-05-28T19:30:39.471Z,100340.03
2023-05-28T19:33:06.266Z,100345.72
2023-05-28T19:35:39.805Z,100340.16
2023-05-28T19:38:08.870Z,100338.41
2023-05-28T19:40:35.452Z,100340.66
2023-05-28T19:43:02.080Z,100349.41
2023-05-28T19:45:30.730Z,100349.78
2023-05-28T19:47:57.358Z,100350.69
2023-05-28T19:50:24.465Z,100353.22
2023-05-28T19:52:53.688Z,100357.47
2023-05-28T19:55:20.509Z,100365.38
2023-05-28T19:57:46.979Z,100369.06
2023-05-28T20:00:13.953Z,100379.16
2023-05-28T20:02:40.544Z,100383.50
2023-05-28T20:05:10.209Z,100379.88
2023-05-28T20:07:40.809Z,100385.91
2023-05-28T20:10:13.995Z,100390.94
2023-05-28T20:12:40.434Z,100394.59
2023-05-28T20:15:08.511Z,100387.06
2023-05-28T20:17:35.073Z,100395.28
2023-05-28T20:20:02.704Z,100405.63
2023-05-28T20:22:29.751Z,100395.47
2023-05-28T20:24:59.049Z,100398.66
2023-05-28T20:27:26.320Z,100407.81
2023-05-28T20:29:52.772Z,100405.81
2023-05-28T20:32:22.691Z,100402.00
2023-05-28T20:34:49.315Z,100419.97
2023-05-28T20:37:15.709Z,100417.66
2023-05-28T20:39:42.183Z,100418.16
2023-05-28T20:42:10.538Z,100419.16
2023-05-28T20:44:37.167Z,100423.31
2023-05-28T20:47:06.367Z,100415.66
2023-05-28T20:49:32.955Z,100415.66
2023-05-28T20:51:59.528Z,100427.16
2023-05-28T20:54:26.375Z,100417.97
2023-05-28T20:56:55.546Z,100427.81
2023-05-28T20:59:22.272Z,100421.97
2023-05-28T21:01:49.233Z,100420.81
2023-05-28T21:04:20.944Z,100424.31
2023-05-28T21:06:47.353Z,100416.31
2023-05-28T21:09:16.609Z,100416.75
2023-05-28T21:11:43.088Z,100420.06
2023-05-28T21:14:09.561Z,100416.31
2023-05-28T21:16:38.407Z,100412.00
2023-05-28T21:19:04.964Z,100419.66
2023-05-28T21:21:31.476Z,100426.00
2023-05-28T21:23:57.885Z,100416.63
2023-05-28T21:26:24.378Z,100422.31
2023-05-28T21:28:50.845Z,100429.81
2023-05-28T21:31:17.720Z,100418.00
2023-05-28T21:33:44.263Z,100428.00
2023-05-28T21:36:11.724Z,100416.00
2023-05-28T21:38:38.134Z,100428.47
2023-05-28T21:41:07.162Z,100424.47
2023-05-28T21:43:36.052Z,100422.97
2023-05-28T21:46:04.849Z,100420.47
2023-05-28T21:48:33.613Z,100414.31
2023-05-28T21:51:03.867Z,100412.66
2023-05-28T21:53:30.416Z,100425.66
2023-05-28T21:55:57.003Z,100430.78
2023-05-28T21:58:23.506Z,100438.63
2023-05-28T22:00:50.086Z,100430.66
2023-05-28T22:03:16.658Z,100441.63
2023-05-28T22:05:43.290Z,100441.38
2023-05-28T22:08:09.813Z,100434.84
2023-05-28T22:10:36.469Z,100440.13
2023-05-28T22:13:02.996Z,100442.41
2023-05-28T22:15:29.629Z,100450.16
2023-05-28T22:17:56.479Z,100447.09
2023-05-28T22:20:31.244Z,100435.59
2023-05-28T22:23:05.360Z,100444.41
2023-05-28T22:25:34.069Z,100442.75
2023-05-28T22:28:00.566Z,100425.50
2023-05-28T22:30:27.264Z,100409.22
2023-05-28T22:32:59.310Z,100412.75
2023-05-28T22:35:27.028Z,100414.66
2023-05-28T22:37:55.906Z,100408.34
2023-05-28T22:40:22.762Z,100398.97
2023-05-28T22:42:49.443Z,100397.16
2023-05-28T22:45:19.221Z,100399.16
2023-05-28T22:47:48.597Z,100403.28
2023-05-28T22:50:18.097Z,100399.97
2023-05-28T22:52:45.755Z,100397.63
2023-05-28T22:55:12.436Z,100396.94
2023-05-28T22:57:39.299Z,100393.94
2023-05-28T23:00:25.430Z,100397.91
2023-05-28T23:02:52.667Z,100386.91
2023-05-28T23:05:21.887Z,100396.25
2023-05-28T23:07:48.479Z,100395.91
2023-05-28T23:10:15.575Z,100403.25
2023-05-28T23:12:42.036Z,100408.09
2023-05-28T23:15:11.544Z,100404.91
2023-05-28T23:17:39.039Z,100404.59
2023-05-28T23:20:06.948Z,100406.28
2023-05-28T23:22:33.592Z,100420.59
2023-05-28T23:25:00.336Z,100409.59
2023-05-28T23:27:31.538Z,100415.28
2023-05-28T23:30:00.470Z,100418.31
2023-05-28T23:32:27.198Z,100415.31
2023-05-28T23:34:58.686Z,100427.00
2023-05-28T23:37:25.141Z,100414.66
2023-05-28T23:39:51.546Z,100432.31
2023-05-28T23:42:17.968Z,100424.50
2023-05-28T23:44:45.310Z,100433.63
2023-05-28T23:47:11.855Z,100439.22
2023-05-28T23:49:38.417Z,100444.50
2023-05-28T23:52:05.138Z,100442.13
2023-05-28T23:54:34.380Z,100435.44
2023-05-28T23:57:00.806Z,100443.66
2023-05-28T23:59:27.544Z,100448.38
